Time;durP1;ratioP1;P1;durP2;ratioP2;P2;SDS_P1;SDS_P2;PMS_P1;PMS_P2;Temp;Humidity;BMP_temperature;BMP_pressure;BME280_temperature;BME280_humidity;BME280_pressure;Samples;Min_cycle;Max_cycle;Signal;HPM_P1;HPM_P2
2022/07/05 00:01:58;;;;;;;1999.90;999.90;;;17.20;99.90;;;;;;5070568;28;20024;-71
2022/07/05 00:04:24;;;;;;;1999.90;999.90;;;17.10;99.90;;;;;;5068975;28;20028;-76
2022/07/05 00:09:34;;;;;;;1999.90;999.90;;;17.00;99.90;;;;;;5066031;28;20027;-71
2022/07/05 00:12:00;;;;;;;1999.90;999.90;;;17.00;99.90;;;;;;5075943;28;20021;-75
2022/07/05 00:14:26;;;;;;;1999.90;999.90;;;16.90;99.90;;;;;;5076459;28;20365;-72
2022/07/05 00:16:51;;;;;;;1999.90;999.90;;;16.90;99.90;;;;;;5075799;28;20021;-76
2022/07/05 00:19:17;;;;;;;1999.90;999.90;;;16.80;99.90;;;;;;5076151;28;20099;-71
2022/07/05 00:21:43;;;;;;;1999.90;999.90;;;16.80;99.90;;;;;;5075842;28;20021;-71
2022/07/05 00:24:08;;;;;;;1999.90;999.90;;;16.80;99.90;;;;;;5075942;28;20033;-76
2022/07/05 00:26:34;;;;;;;1999.90;999.90;;;16.70;99.90;;;;;;5075984;28;20024;-76
2022/07/05 00:29:00;;;;;;;1999.90;999.90;;;16.70;99.90;;;;;;5076049;28;20471;-76
2022/07/05 00:31:25;;;;;;;1999.90;999.90;;;16.60;99.90;;;;;;5075356;28;20056;-76
2022/07/05 00:33:51;;;;;;;1999.90;999.90;;;16.60;99.90;;;;;;5075634;28;20024;-71
2022/07/05 00:36:16;;;;;;;1999.90;999.90;;;16.50;99.90;;;;;;5059162;28;20028;-76
2022/07/05 00:38:42;;;;;;;1999.90;999.90;;;16.50;99.90;;;;;;5065206;28;20028;-70
2022/07/05 00:41:08;;;;;;;1999.90;999.90;;;16.40;99.90;;;;;;5075873;28;20029;-76
2022/07/05 00:43:33;;;;;;;1999.90;999.90;;;16.40;99.90;;;;;;5075012;28;20021;-71
2022/07/05 00:45:59;;;;;;;1999.90;999.90;;;16.40;99.90;;;;;;5075561;28;20032;-71
2022/07/05 00:48:25;;;;;;;1999.90;999.90;;;16.30;99.90;;;;;;5075839;28;20029;-72
2022/07/05 00:50:51;;;;;;;1999.90;999.90;;;16.30;99.90;;;;;;5075793;28;20047;-75
2022/07/05 00:53:17;;;;;;;1999.90;999.90;;;16.30;99.90;;;;;;5075461;28;20043;-76
2022/07/05 00:55:44;;;;;;;1999.90;999.90;;;16.20;99.90;;;;;;5060736;28;20483;-76
2022/07/05 00:58:10;;;;;;;1999.90;999.90;;;16.10;99.90;;;;;;5037016;28;20036;-71
2022/07/05 01:00:37;;;;;;;1999.90;999.90;;;16.10;99.90;;;;;;5058665;28;20480;-71
2022/07/05 01:03:03;;;;;;;1999.90;999.90;;;16.00;99.90;;;;;;5075303;28;20024;-76
2022/07/05 01:05:29;;;;;;;1999.90;999.90;;;15.90;99.90;;;;;;5066023;28;20028;-76
2022/07/05 01:07:58;;;;;;;1999.90;999.90;;;15.80;99.90;;;;;;5064774;28;20024;-75
2022/07/05 01:10:23;;;;;;;1999.90;999.90;;;15.80;99.90;;;;;;5055388;28;20079;-75
2022/07/05 01:12:49;;;;;;;1999.90;999.90;;;15.70;99.90;;;;;;5064231;28;20402;-71
2022/07/05 01:15:16;;;;;;;1999.90;999.90;;;15.70;99.90;;;;;;5074559;28;20466;-71
2022/07/05 01:17:42;;;;;;;1999.90;999.90;;;15.70;99.90;;;;;;5074818;28;20051;-76
2022/07/05 01:20:08;;;;;;;1999.90;999.90;;;15.60;99.90;;;;;;5075227;28;20056;-75
2022/07/05 01:22:55;;;;;;;1999.90;999.90;;;15.60;99.90;;;;;;5074518;28;20028;-71
2022/07/05 01:25:23;;;;;;;1999.90;999.90;;;15.50;99.90;;;;;;5074969;28;20143;-71
2022/07/05 01:27:49;;;;;;;1999.90;999.90;;;15.50;99.90;;;;;;5074916;28;20420;-71
2022/07/05 01:30:16;;;;;;;1999.90;999.90;;;15.40;99.90;;;;;;5074882;28;20048;-76
2022/07/05 01:32:42;;;;;;;1999.90;999.90;;;15.40;99.90;;;;;;5073995;28;20101;-76
2022/07/05 01:35:09;;;;;;;1999.90;999.90;;;15.30;99.90;;;;;;5068495;28;20104;-75
2022/07/05 01:37:35;;;;;;;1999.90;999.90;;;15.30;99.90;;;;;;5054674;28;20041;-71
2022/07/05 01:40:05;;;;;;;1999.90;999.90;;;15.30;99.90;;;;;;5074965;28;20035;-75
2022/07/05 01:42:30;;;;;;;1999.90;999.90;;;15.20;99.90;;;;;;5074234;28;20032;-75
2022/07/05 01:44:56;;;;;;;1999.90;999.90;;;15.20;99.90;;;;;;5074552;28;20036;-76
2022/07/05 01:47:22;;;;;;;1999.90;999.90;;;15.20;99.90;;;;;;5074487;28;20028;-75
2022/07/05 01:49:52;;;;;;;1999.90;999.90;;;15.10;99.90;;;;;;5074222;28;20024;-71
2022/07/05 01:52:21;;;;;;;1999.90;999.90;;;15.10;99.90;;;;;;5074153;28;20040;-71
2022/07/05 01:54:47;;;;;;;1999.90;999.90;;;15.10;99.90;;;;;;5066909;28;20052;-71
2022/07/05 01:57:12;;;;;;;1999.90;999.90;;;15.00;99.90;;;;;;5054319;28;20056;-76
2022/07/05 01:59:38;;;;;;;1999.90;999.90;;;15.00;99.90;;;;;;5036318;28;20039;-70
2022/07/05 02:02:06;;;;;;;1999.90;999.90;;;14.90;99.90;;;;;;5069835;28;20032;-75
2022/07/05 02:04:34;;;;;;;1999.90;999.90;;;14.90;99.90;;;;;;5065225;28;20076;-71
2022/07/05 02:07:03;;;;;;;1999.90;999.90;;;14.90;99.90;;;;;;5054160;28;20427;-75
2022/07/05 02:09:28;;;;;;;1999.90;999.90;;;14.80;99.90;;;;;;5053333;28;20412;-76
2022/07/05 02:11:54;;;;;;;1999.90;999.90;;;14.80;99.90;;;;;;5055632;28;20079;-76
2022/07/05 02:14:20;;;;;;;1999.90;999.90;;;14.70;99.90;;;;;;5056003;28;20028;-75
2022/07/05 02:16:45;;;;;;;1999.90;999.90;;;14.70;99.90;;;;;;5073629;28;20032;-75
2022/07/05 02:19:11;;;;;;;1999.90;999.90;;;14.60;99.90;;;;;;5073563;28;20099;-71
2022/07/05 02:21:37;;;;;;;1999.90;999.90;;;14.60;99.90;;;;;;5073675;28;20052;-75
2022/07/05 02:24:02;;;;;;;1999.90;999.90;;;14.50;99.90;;;;;;5073642;28;20024;-71
2022/07/05 02:26:28;;;;;;;1999.90;999.90;;;14.50;99.90;;;;;;5073851;28;20032;-75
2022/07/05 02:28:54;;;;;;;1999.90;999.90;;;14.50;99.90;;;;;;5073595;28;20074;-75
2022/07/05 02:31:20;;;;;;;1999.90;999.90;;;14.50;99.90;;;;;;5073087;28;20103;-71
2022/07/05 02:33:46;;;;;;;1999.90;999.90;;;14.50;99.90;;;;;;5072663;28;20024;-71
2022/07/05 02:36:13;;;;;;;1999.90;999.90;;;14.40;99.90;;;;;;5058543;28;20025;-75
2022/07/05 02:38:40;;;;;;;1999.90;999.90;;;14.40;99.90;;;;;;5062735;28;20032;-75
2022/07/05 02:41:10;;;;;;;1999.90;999.90;;;14.40;99.90;;;;;;5073546;28;20017;-75
2022/07/05 02:43:37;;;;;;;1999.90;999.90;;;14.30;99.90;;;;;;5072377;28;20033;-70
2022/07/05 02:46:03;;;;;;;1999.90;999.90;;;14.30;99.90;;;;;;5073268;28;20016;-75
2022/07/05 02:48:29;;;;;;;1999.90;999.90;;;14.30;99.90;;;;;;5073312;28;20115;-71
2022/07/05 02:50:55;;;;;;;1999.90;999.90;;;14.30;99.90;;;;;;5073394;28;20035;-75
2022/07/05 02:53:21;;;;;;;1999.90;999.90;;;14.20;99.90;;;;;;5073353;28;20024;-75
2022/07/05 02:55:46;;;;;;;1999.90;999.90;;;14.20;99.90;;;;;;5057363;28;20077;-71
2022/07/05 02:58:12;;;;;;;1999.90;999.90;;;14.10;99.90;;;;;;5053351;28;20021;-71
2022/07/05 03:00:37;;;;;;;1999.90;999.90;;;14.10;99.90;;;;;;5055629;28;20372;-75
2022/07/05 03:03:03;;;;;;;1999.90;999.90;;;14.00;99.90;;;;;;5073011;28;20487;-75
2022/07/05 03:05:29;;;;;;;1999.90;999.90;;;14.00;99.90;;;;;;5057661;28;20100;-76
2022/07/05 03:07:54;;;;;;;1999.90;999.90;;;14.00;99.90;;;;;;5052849;28;20021;-75
2022/07/05 03:10:20;;;;;;;1999.90;999.90;;;14.00;99.90;;;;;;5052965;28;20029;-71
2022/07/05 03:12:46;;;;;;;1999.90;999.90;;;14.00;99.90;;;;;;5060993;28;20082;-76
2022/07/05 03:15:11;;;;;;;1999.90;999.90;;;13.90;99.90;;;;;;5073100;28;20040;-71
2022/07/05 03:17:37;;;;;;;1999.90;999.90;;;13.90;99.90;;;;;;5072849;28;20053;-76
2022/07/05 03:20:03;;;;;;;1999.90;999.90;;;13.90;99.90;;;;;;5072708;28;20471;-70
2022/07/05 03:22:29;;;;;;;1999.90;999.90;;;13.90;99.90;;;;;;5072500;28;20027;-71
2022/07/05 03:24:54;;;;;;;1999.90;999.90;;;13.90;99.90;;;;;;5073341;28;20454;-71
2022/07/05 03:27:20;;;;;;;1999.90;999.90;;;13.80;99.90;;;;;;5072934;28;20077;-76
2022/07/05 03:29:45;;;;;;;1999.90;999.90;;;13.80;99.90;;;;;;5072959;28;20069;-75
2022/07/05 03:32:11;;;;;;;1999.90;999.90;;;13.80;99.90;;;;;;5072790;28;20025;-75
2022/07/05 03:34:38;;;;;;;1999.90;999.90;;;13.80;99.90;;;;;;5069710;28;20383;-71
2022/07/05 03:37:04;;;;;;;1999.90;999.90;;;13.80;99.90;;;;;;5052984;28;20045;-71
2022/07/05 03:39:31;;;;;;;1999.90;999.90;;;13.80;99.90;;;;;;5069303;28;20056;-71
2022/07/05 03:41:56;;;;;;;1999.90;999.90;;;13.80;99.90;;;;;;5071658;28;20040;-75
2022/07/05 03:44:22;;;;;;;1999.90;999.90;;;13.70;99.90;;;;;;5071770;28;20025;-75
2022/07/05 03:46:48;;;;;;;1999.90;999.90;;;13.70;99.90;;;;;;5072775;28;20021;-71
2022/07/05 03:49:13;;;;;;;1999.90;999.90;;;13.70;99.90;;;;;;5072719;28;20483;-70
2022/07/05 03:51:39;;;;;;;1999.90;999.90;;;13.70;99.90;;;;;;5073075;28;20519;-75
2022/07/05 03:54:04;;;;;;;1999.90;999.90;;;13.70;99.90;;;;;;5070780;28;20067;-75
2022/07/05 03:56:30;;;;;;;1999.90;999.90;;;13.70;99.90;;;;;;5052669;28;20033;-76
2022/07/05 03:58:56;;;;;;;1999.90;999.90;;;13.60;99.90;;;;;;5052503;28;20046;-75
2022/07/05 04:01:22;;;;;;;1999.90;999.90;;;13.60;99.90;;;;;;5060995;28;20033;-75
2022/07/05 04:03:47;;;;;;;1999.90;999.90;;;13.60;99.90;;;;;;5072308;28;20464;-70
2022/07/05 04:06:13;;;;;;;1999.90;999.90;;;13.60;99.90;;;;;;5072518;28;20048;-71
2022/07/05 04:08:39;;;;;;;1999.90;999.90;;;13.60;99.90;;;;;;5072045;28;20074;-75
2022/07/05 04:11:05;;;;;;;1999.90;999.90;;;13.60;99.90;;;;;;5072546;28;20029;-75
2022/07/05 04:13:31;;;;;;;1999.90;999.90;;;13.50;99.90;;;;;;5071638;28;20033;-75
2022/07/05 04:15:57;;;;;;;1999.90;999.90;;;13.50;99.90;;;;;;5071902;28;20034;-75
2022/07/05 04:18:22;;;;;;;1999.90;999.90;;;13.50;99.90;;;;;;5071717;28;20029;-75
2022/07/05 04:20:48;;;;;;;1999.90;999.90;;;13.40;99.90;;;;;;5072498;28;20031;-76
2022/07/05 04:23:14;;;;;;;1999.90;999.90;;;13.50;99.90;;;;;;5071617;28;20475;-75
2022/07/05 04:25:40;;;;;;;1999.90;999.90;;;13.40;99.90;;;;;;5073105;28;20028;-71
2022/07/05 04:28:06;;;;;;;1999.90;999.90;;;13.40;99.90;;;;;;5072095;28;20051;-75
2022/07/05 04:30:32;;;;;;;1999.90;999.90;;;13.40;99.90;;;;;;5072379;28;20375;-71
2022/07/05 04:32:58;;;;;;;1999.90;999.90;;;13.40;99.90;;;;;;5073393;28;20051;-71
2022/07/05 04:35:23;;;;;;;1999.90;999.90;;;13.50;99.90;;;;;;5067509;28;20036;-75
2022/07/05 04:37:49;;;;;;;1999.90;999.90;;;13.50;99.90;;;;;;5057523;28;20069;-75
2022/07/05 04:40:15;;;;;;;1999.90;999.90;;;13.40;99.90;;;;;;5068457;28;20037;-71
2022/07/05 04:42:41;;;;;;;1999.90;999.90;;;13.40;99.90;;;;;;5059149;28;20029;-75
2022/07/05 04:45:08;;;;;;;1999.90;999.90;;;13.50;99.90;;;;;;5075531;28;20394;-75
2022/07/05 04:47:34;;;;;;;1999.90;999.90;;;13.40;99.90;;;;;;5075210;28;20063;-75
2022/07/05 04:50:01;;;;;;;1999.90;999.90;;;13.50;99.90;;;;;;5067653;28;20435;-75
2022/07/05 04:52:27;;;;;;;1999.90;999.90;;;13.50;99.90;;;;;;5055323;28;20021;-71
2022/07/05 04:54:53;;;;;;;1999.90;999.90;;;13.50;99.90;;;;;;5064673;28;20147;-70
2022/07/05 04:57:19;;;;;;;1999.90;999.90;;;13.50;99.90;;;;;;5075462;28;20025;-75
2022/07/05 04:59:45;;;;;;;1999.90;999.90;;;13.50;99.90;;;;;;5075000;28;20051;-70
2022/07/05 05:02:10;;;;;;;1999.90;999.90;;;13.50;99.90;;;;;;5075159;28;20029;-75
2022/07/05 05:04:36;;;;;;;1999.90;999.90;;;13.60;99.90;;;;;;5056633;28;20158;-76
2022/07/05 05:07:02;;;;;;;1999.90;999.90;;;13.60;99.90;;;;;;5071103;28;20021;-71
2022/07/05 05:09:28;;;;;;;1999.90;999.90;;;13.60;99.90;;;;;;5063621;28;20464;-76
2022/07/05 05:11:53;;;;;;;1999.90;999.90;;;13.60;99.90;;;;;;5074746;28;20063;-75
2022/07/05 05:14:19;;;;;;;1999.90;999.90;;;13.70;99.90;;;;;;5074783;28;20078;-76
2022/07/05 05:16:45;;;;;;;1999.90;999.90;;;13.70;99.90;;;;;;5074868;28;20017;-75
2022/07/05 05:19:11;;;;;;;1999.90;999.90;;;13.70;99.90;;;;;;5074683;28;20027;-76
2022/07/05 05:21:36;;;;;;;1999.90;999.90;;;13.70;99.90;;;;;;5074062;28;20107;-70
2022/07/05 05:24:02;;;;;;;1999.90;999.90;;;13.80;99.90;;;;;;5074032;28;20020;-70
2022/07/05 05:26:28;;;;;;;1999.90;999.90;;;13.90;99.90;;;;;;5074446;28;20032;-70
2022/07/05 05:28:54;;;;;;;1999.90;999.90;;;13.90;99.90;;;;;;5074482;28;20029;-75
2022/07/05 05:31:19;;;;;;;1999.90;999.90;;;13.90;99.90;;;;;;5062591;28;20017;-75
2022/07/05 05:33:46;;;;;;;1999.90;999.90;;;13.90;99.90;;;;;;5073701;28;20082;-70
2022/07/05 05:36:11;;;;;;;1999.90;999.90;;;14.00;99.90;;;;;;5068876;28;20056;-70
2022/07/05 05:38:37;;;;;;;1999.90;999.90;;;14.00;99.90;;;;;;5055359;28;20388;-71
2022/07/05 05:41:03;;;;;;;1999.90;999.90;;;14.10;99.90;;;;;;5058127;28;20430;-75
2022/07/05 05:43:29;;;;;;;1999.90;999.90;;;14.20;99.90;;;;;;5051672;28;20047;-71
2022/07/05 05:45:54;;;;;;;1999.90;999.90;;;14.20;99.90;;;;;;5072159;28;20029;-71
2022/07/05 05:48:20;;;;;;;1999.90;999.90;;;14.30;99.90;;;;;;5073878;28;20036;-71
2022/07/05 05:50:46;;;;;;;1999.90;999.90;;;14.40;99.90;;;;;;5073577;28;20016;-75
2022/07/05 05:53:12;;;;;;;1999.90;999.90;;;14.40;99.90;;;;;;5073649;28;20102;-71
2022/07/05 05:55:38;;;;;;;1999.90;999.90;;;14.50;99.90;;;;;;5059395;28;20036;-71
2022/07/05 05:58:30;;;;;;;1999.90;999.90;;;14.50;99.90;;;;;;5053424;28;20028;-71
2022/07/05 06:00:56;;;;;;;1999.90;999.90;;;14.60;99.90;;;;;;5049688;28;20463;-71
2022/07/05 06:03:25;;;;;;;1999.90;999.90;;;14.60;99.90;;;;;;5055196;28;20063;-71
2022/07/05 06:05:50;;;;;;;1999.90;999.90;;;14.60;99.90;;;;;;5071122;28;20462;-75
2022/07/05 06:08:17;;;;;;;1999.90;999.90;;;14.60;99.90;;;;;;5067366;28;20033;-76
2022/07/05 06:10:43;;;;;;;1999.90;999.90;;;14.70;99.90;;;;;;5068825;28;20028;-70
2022/07/05 06:13:10;;;;;;;1999.90;999.90;;;14.80;99.90;;;;;;5072461;28;20032;-70
2022/07/05 06:15:36;;;;;;;1999.90;999.90;;;14.90;99.90;;;;;;5073198;28;20047;-75
2022/07/05 06:18:03;;;;;;;1999.90;999.90;;;15.00;99.90;;;;;;5073078;28;20051;-76
2022/07/05 06:20:31;;;;;;;1999.90;999.90;;;15.10;99.90;;;;;;5073128;28;20020;-75
2022/07/05 06:23:00;;;;;;;1999.90;999.90;;;15.10;99.90;;;;;;5072476;28;20033;-75
2022/07/05 06:25:25;;;;;;;1999.90;999.90;;;15.20;99.90;;;;;;5068322;28;20031;-71
2022/07/05 06:27:53;;;;;;;1999.90;999.90;;;15.30;99.90;;;;;;5067901;28;20132;-75
2022/07/05 06:30:21;;;;;;;1999.90;999.90;;;15.30;99.90;;;;;;5064040;28;20028;-76
2022/07/05 06:32:48;;;;;;;1999.90;999.90;;;15.50;99.90;;;;;;5059630;28;20120;-70
2022/07/05 06:35:14;;;;;;;1999.90;999.90;;;15.60;99.90;;;;;;5063509;28;20384;-71
2022/07/05 06:37:49;;;;;;;1999.90;999.90;;;15.70;99.90;;;;;;5066313;28;20932;-71
2022/07/05 06:40:25;;;;;;;1999.90;999.90;;;15.80;99.90;;;;;;5063813;28;20476;-74
2022/07/05 06:42:55;;;;;;;1999.90;999.90;;;15.90;99.90;;;;;;5061884;28;20103;-75
2022/07/05 06:45:21;;;;;;;1999.90;999.90;;;16.10;99.90;;;;;;5060646;28;20457;-71
2022/07/05 06:48:04;;;;;;;1999.90;999.90;;;16.20;99.90;;;;;;5054101;28;20677;-74
2022/07/05 06:50:33;;;;;;;1999.90;999.90;;;16.40;99.90;;;;;;5055180;28;20021;-71
2022/07/05 06:52:59;;;;;;;1999.90;999.90;;;16.60;99.90;;;;;;5069714;28;20115;-75
2022/07/05 06:55:25;;;;;;;1999.90;999.90;;;16.70;99.90;;;;;;5065607;28;20527;-74
2022/07/05 06:58:03;;;;;;;1999.90;999.90;;;16.90;99.90;;;;;;5054985;28;20029;-71
2022/07/05 07:00:29;;;;;;;1999.90;999.90;;;17.00;99.90;;;;;;5057965;28;20079;-74
2022/07/05 07:02:55;;;;;;;1999.90;999.90;;;17.10;99.90;;;;;;5061350;28;20437;-71
2022/07/05 07:05:20;;;;;;;1999.90;999.90;;;17.30;99.90;;;;;;5056464;28;20047;-71
2022/07/05 07:10:30;;;;;;;1999.90;999.90;;;17.40;99.90;;;;;;5058139;28;20039;-75
2022/07/05 07:13:00;;;;;;;1999.90;999.90;;;17.60;99.90;;;;;;5055078;28;20029;-74
2022/07/05 07:15:26;;;;;;;1999.90;999.90;;;17.70;99.90;;;;;;5058939;28;20895;-70
2022/07/05 07:17:51;;;;;;;1999.90;999.90;;;17.90;99.90;;;;;;5059275;28;20025;-68
2022/07/05 07:20:17;;;;;;;1999.90;999.90;;;18.00;99.90;;;;;;5060431;28;20467;-75
2022/07/05 07:22:43;;;;;;;1999.90;999.90;;;18.20;99.90;;;;;;5061453;28;20544;-71
2022/07/05 07:25:11;;;;;;;1999.90;999.90;;;18.30;99.90;;;;;;5063576;28;20083;-75
2022/07/05 07:27:49;;;;;;;1999.90;999.90;;;18.40;99.90;;;;;;5054590;28;20491;-73
2022/07/05 07:30:18;;;;;;;1999.90;999.90;;;18.60;99.90;;;;;;5061388;28;20519;-73
2022/07/05 07:32:45;;;;;;;1999.90;999.90;;;18.80;99.90;;;;;;5058718;28;20029;-72
2022/07/05 07:35:11;;;;;;;1999.90;999.90;;;19.10;99.90;;;;;;5062887;28;20027;-74
2022/07/05 07:37:37;;;;;;;1999.90;999.90;;;20.00;99.90;;;;;;5062442;28;20051;-73
2022/07/05 07:40:06;;;;;;;1999.90;999.90;;;22.60;99.90;;;;;;5058465;28;20024;-74
2022/07/05 07:42:32;;;;;;;1999.90;999.90;;;24.60;96.80;;;;;;5059262;28;20025;-72
2022/07/05 07:44:58;;;;;;;1999.90;999.90;;;25.40;94.70;;;;;;5058502;28;20070;-72
2022/07/05 07:47:24;;;;;;;1999.90;999.90;;;26.40;93.80;;;;;;5060446;28;20028;-74
2022/07/05 07:49:50;;;;;;;1999.90;999.90;;;26.80;92.80;;;;;;5064739;28;20096;-74
2022/07/05 07:52:16;;;;;;;1999.90;999.90;;;27.50;92.10;;;;;;5066319;28;20029;-74
2022/07/05 07:54:41;;;;;;;1999.90;999.90;;;27.60;91.60;;;;;;5056528;28;20021;-72
2022/07/05 07:57:07;;;;;;;1999.90;999.90;;;27.70;91.40;;;;;;5061131;28;20020;-74
2022/07/05 07:59:34;;;;;;;1999.90;999.90;;;28.20;91.00;;;;;;5063054;28;20039;-72
2022/07/05 08:01:59;;;;;;;1999.90;999.90;;;28.40;91.00;;;;;;5064266;28;20040;-74
2022/07/05 08:04:25;;;;;;;1999.90;999.90;;;28.20;90.40;;;;;;5051661;28;20037;-72
2022/07/05 08:06:51;;;;;;;1999.90;999.90;;;28.90;90.20;;;;;;5063755;28;20021;-74
2022/07/05 08:09:17;;;;;;;1999.90;999.90;;;29.10;90.50;;;;;;5073584;28;20395;-75
2022/07/05 08:11:43;;;;;;;1999.90;999.90;;;29.50;88.60;;;;;;5062748;28;20075;-72
2022/07/05 08:14:09;;;;;;;1999.90;999.90;;;30.40;87.80;;;;;;5070858;28;20146;-72
2022/07/05 08:16:34;;;;;;;1999.90;999.90;;;29.90;87.50;;;;;;5061735;28;20143;-74
2022/07/05 08:21:44;;;;;;;1999.90;999.90;;;30.40;88.20;;;;;;5061200;28;20040;-72
2022/07/05 08:24:12;;;;;;;1999.90;999.90;;;30.80;86.80;;;;;;5064577;28;20032;-72
2022/07/05 08:26:39;;;;;;;1999.90;999.90;;;31.10;86.30;;;;;;5062998;28;20348;-74
2022/07/05 08:29:10;;;;;;;1999.90;999.90;;;31.20;86.20;;;;;;5063447;28;20082;-71
2022/07/05 08:31:42;;;;;;;1999.90;999.90;;;31.60;85.00;;;;;;5063690;28;20025;-74
2022/07/05 08:34:09;;;;;;;1999.90;999.90;;;32.00;83.20;;;;;;5062453;28;20516;-74
2022/07/05 08:36:35;;;;;;;1999.90;999.90;;;32.70;82.80;;;;;;5066467;28;20500;-72
2022/07/05 08:39:00;;;;;;;1999.90;999.90;;;32.60;82.40;;;;;;5060121;28;20039;-72
2022/07/05 08:41:28;;;;;;;1999.90;999.90;;;32.50;81.80;;;;;;5063054;28;20052;-71
2022/07/05 08:43:57;;;;;;;1999.90;999.90;;;32.50;82.30;;;;;;5079949;28;20029;-71
2022/07/05 08:46:25;;;;;;;1999.90;999.90;;;32.50;81.60;;;;;;5075314;28;20163;-70
2022/07/05 08:48:51;;;;;;;1999.90;999.90;;;33.40;81.80;;;;;;5062614;28;20093;-70
2022/07/05 08:51:22;;;;;;;1999.90;999.90;;;33.80;80.80;;;;;;5066556;28;20101;-72
2022/07/05 08:53:49;;;;;;;1999.90;999.90;;;33.30;79.60;;;;;;5068452;28;20013;-73
2022/07/05 08:56:15;;;;;;;1999.90;999.90;;;33.30;79.50;;;;;;5059936;28;20025;-73
2022/07/05 08:58:41;;;;;;;1999.90;999.90;;;33.70;79.60;;;;;;5066249;28;20028;-74
2022/07/05 09:01:09;;;;;;;1999.90;999.90;;;33.70;79.30;;;;;;5053313;28;20028;-70
2022/07/05 09:03:55;;;;;;;1999.90;999.90;;;33.40;79.00;;;;;;5075012;28;20115;-70
2022/07/05 09:06:25;;;;;;;1999.90;999.90;;;34.70;79.90;;;;;;5053569;28;20062;-72
2022/07/05 09:08:55;;;;;;;1999.90;999.90;;;34.30;79.10;;;;;;5069359;28;20363;-72
2022/07/05 09:11:35;;;;;;;1999.90;999.90;;;35.20;78.70;;;;;;5073222;28;20103;-72
2022/07/05 09:14:03;;;;;;;1999.90;999.90;;;35.50;79.00;;;;;;5067459;28;20032;-70
2022/07/05 09:16:31;;;;;;;1999.90;999.90;;;34.50;77.90;;;;;;5069320;28;20074;-71
2022/07/05 09:19:06;;;;;;;1999.90;999.90;;;34.80;77.90;;;;;;5072492;28;20067;-71
2022/07/05 09:21:32;;;;;;;1999.90;999.90;;;34.20;77.90;;;;;;5058256;28;20404;-72
2022/07/05 09:24:02;;;;;;;1999.90;999.90;;;34.60;77.90;;;;;;5072752;28;20037;-72
2022/07/05 09:26:46;;;;;;;1999.90;999.90;;;35.00;77.90;;;;;;5072285;28;20467;-70
2022/07/05 09:29:15;;;;;;;1999.90;999.90;;;34.70;77.60;;;;;;5049950;28;20036;-72
2022/07/05 09:31:45;;;;;;;1999.90;999.90;;;34.50;77.50;;;;;;5063726;28;20037;-72
2022/07/05 09:34:12;;;;;;;1999.90;999.90;;;35.60;78.60;;;;;;5066084;28;20052;-72
2022/07/05 09:37:01;;;;;;;1999.90;999.90;;;35.10;76.40;;;;;;5069665;28;20133;-72
2022/07/05 09:39:30;;;;;;;1999.90;999.90;;;35.50;76.00;;;;;;5062990;28;20083;-71
2022/07/05 09:42:23;;;;;;;1999.90;999.90;;;35.00;76.70;;;;;;5044605;28;20058;-72
2022/07/05 09:44:53;;;;;;;1999.90;999.90;;;34.60;76.80;;;;;;5075168;28;20567;-72
2022/07/05 09:47:21;;;;;;;1999.90;999.90;;;34.90;75.90;;;;;;5044864;28;20396;-72
2022/07/05 09:49:49;;;;;;;1999.90;999.90;;;34.50;76.20;;;;;;5069964;28;20028;-72
2022/07/05 09:52:27;;;;;;;1999.90;999.90;;;35.40;75.50;;;;;;5066209;28;20533;-70
2022/07/05 09:55:18;;;;;;;1999.90;999.90;;;35.20;76.00;;;;;;5066198;28;20073;-71
2022/07/05 09:57:46;;;;;;;;;;;35.00;74.40;;;;;;5057824;28;20052;-72
2022/07/05 10:00:15;;;;;;;1999.90;999.90;;;35.00;75.50;;;;;;5061621;28;19919;-73
2022/07/05 10:02:42;;;;;;;1999.90;999.90;;;35.40;75.70;;;;;;5070569;28;20063;-72
2022/07/05 10:05:16;;;;;;;1999.90;999.90;;;35.30;74.70;;;;;;5059452;28;20031;-70
2022/07/05 10:07:53;;;;;;;1999.90;999.90;;;34.90;72.90;;;;;;5063087;28;20025;-71
2022/07/05 10:10:24;;;;;;;1999.90;999.90;;;34.50;72.80;;;;;;5062320;28;20396;-72
2022/07/05 10:12:52;;;;;;;1999.90;999.90;;;34.30;74.50;;;;;;5062792;28;20025;-72
2022/07/05 10:15:23;;;;;;;1999.90;999.90;;;34.20;75.00;;;;;;5061714;28;20028;-72
2022/07/05 10:18:08;;;;;;;;;;;34.80;75.00;;;;;;5060924;28;20106;-70
2022/07/05 10:20:37;;;;;;;1999.90;999.90;;;34.90;74.70;;;;;;5054097;28;19905;-73
2022/07/05 10:23:15;;;;;;;1999.90;999.90;;;35.00;74.90;;;;;;5057073;28;20048;-73
2022/07/05 10:25:44;;;;;;;1999.90;999.90;;;35.20;73.80;;;;;;5057892;28;20483;-73
2022/07/05 10:28:10;;;;;;;1999.90;999.90;;;35.20;75.30;;;;;;5052959;28;20484;-73
2022/07/05 10:30:37;;;;;;;1999.90;999.90;;;35.60;74.80;;;;;;5053786;28;20055;-71
2022/07/05 10:33:04;;;;;;;1999.90;999.90;;;35.50;72.80;;;;;;5052997;28;20025;-72
2022/07/05 10:35:30;;;;;;;1999.90;999.90;;;34.90;74.60;;;;;;5058576;28;20468;-74
2022/07/05 10:37:58;;;;;;;1999.90;999.90;;;34.80;72.60;;;;;;5064652;28;20088;-73
2022/07/05 10:40:24;;;;;;;1999.90;999.90;;;34.80;73.40;;;;;;5064978;28;20028;-74
2022/07/05 10:42:52;;;;;;;1999.90;999.90;;;34.40;72.00;;;;;;5064464;28;20031;-73
2022/07/05 10:45:34;;;;;;;1999.90;999.90;;;34.60;72.80;;;;;;5063141;28;20532;-71
2022/07/05 10:48:09;;;;;;;1999.90;999.90;;;35.20;72.80;;;;;;5066923;28;20028;-73
2022/07/05 10:50:44;;;;;;;1999.90;999.90;;;34.40;72.50;;;;;;5063946;28;20048;-71
2022/07/05 10:53:10;;;;;;;1999.90;999.90;;;34.30;72.50;;;;;;5067114;28;20041;-72
2022/07/05 10:55:54;;;;;;;1999.90;999.90;;;34.10;73.10;;;;;;5066195;28;20021;-73
2022/07/05 10:58:36;;;;;;;1999.90;999.90;;;34.30;72.20;;;;;;5061738;28;20024;-72
2022/07/05 11:01:23;;;;;;;1999.90;999.90;;;35.30;72.10;;;;;;5060756;28;20112;-71
2022/07/05 11:04:00;;;;;;;1999.90;999.90;;;35.30;70.90;;;;;;5060848;28;20032;-73
2022/07/05 11:06:28;;;;;;;1999.90;999.90;;;35.40;71.70;;;;;;5060740;28;20086;-73
2022/07/05 11:08:59;;;;;;;1999.90;999.90;;;35.10;70.70;;;;;;5065743;28;20029;-73
2022/07/05 11:11:26;;;;;;;;;;;35.00;71.10;;;;;;5062921;28;20033;-71
2022/07/05 11:13:54;;;;;;;1999.90;999.90;;;35.20;69.80;;;;;;5058662;28;20391;-73
2022/07/05 11:16:19;;;;;;;1999.90;999.90;;;35.10;66.80;;;;;;5070574;28;20050;-72
2022/07/05 11:18:45;;;;;;;1999.90;999.90;;;34.90;70.20;;;;;;5070761;28;20036;-73
2022/07/05 11:21:21;;;;;;;1999.90;999.90;;;34.70;69.40;;;;;;5067169;28;20037;-71
2022/07/05 11:23:48;;;;;;;1999.90;999.90;;;35.20;68.50;;;;;;5055628;28;20025;-71
2022/07/05 11:26:16;;;;;;;1999.90;999.90;;;35.30;69.30;;;;;;5070977;28;20040;-71
2022/07/05 11:28:47;;;;;;;1999.90;999.90;;;35.70;68.20;;;;;;5063877;28;20423;-73
2022/07/05 11:31:42;;;;;;;1999.90;999.90;;;35.90;66.80;;;;;;5068794;28;20028;-71
2022/07/05 11:34:14;;;;;;;1999.90;999.90;;;35.90;68.30;;;;;;5061757;28;20039;-73
2022/07/05 11:36:40;;;;;;;1999.90;999.90;;;35.20;68.90;;;;;;5053442;28;20072;-71
2022/07/05 11:39:20;;;;;;;1999.90;999.90;;;35.10;68.80;;;;;;5056854;28;20064;-73
2022/07/05 11:41:49;;;;;;;1999.90;999.90;;;34.60;68.00;;;;;;5057021;28;20025;-73
2022/07/05 11:44:16;;;;;;;1999.90;999.90;;;34.60;68.00;;;;;;5074559;28;20069;-72
2022/07/05 11:46:43;;;;;;;1999.90;999.90;;;35.10;69.50;;;;;;5071387;28;20112;-73
2022/07/05 11:49:08;;;;;;;1999.90;999.90;;;34.60;67.80;;;;;;5054860;28;20461;-73
2022/07/05 11:51:34;;;;;;;1999.90;999.90;;;34.30;69.60;;;;;;5065631;28;20105;-71
2022/07/05 11:54:01;;;;;;;1999.90;999.90;;;34.20;69.40;;;;;;5074309;28;20112;-71
2022/07/05 11:56:27;;;;;;;1999.90;999.90;;;34.70;68.60;;;;;;5068928;28;20017;-73
2022/07/05 11:58:53;;;;;;;1999.90;999.90;;;34.40;66.00;;;;;;5073613;28;20021;-73
2022/07/05 12:01:18;;;;;;;1999.90;999.90;;;34.30;67.80;;;;;;5060770;28;20530;-71
2022/07/05 12:03:57;;;;;;;1999.90;999.90;;;34.80;68.00;;;;;;5069292;28;20483;-71
2022/07/05 12:06:24;;;;;;;1999.90;999.90;;;34.60;67.40;;;;;;5064429;28;20514;-73
2022/07/05 12:09:03;;;;;;;1999.90;999.90;;;34.90;67.30;;;;;;5060494;28;20760;-72
2022/07/05 12:14:20;;;;;;;1999.90;999.90;;;35.20;69.00;;;;;;5071727;28;20035;-73
2022/07/05 12:16:46;;;;;;;1999.90;999.90;;;34.70;67.90;;;;;;5065348;28;20021;-71